CLW weather

Clearwater Air Park
Clearwater, Florida, United States

Public forecast

Using degrees Fahrenheit for public forecast. Weather courtesy of forecast.io.

Current aviation weather report (METAR) for Clearwater Air Park

Retrieved 2019/12/12 05:35 UTC (14 minutes ago):

KCLW 120535Z AUTO 07006KT 10SM OVC013 17/15 A3026 RMK AO2

Closest aviation forecast (TAF) to Clearwater Air Park

Closest forecast is St Petersburg Clearwater International Airport, 5.5 nm (10.2 km) SE. Retrieved 2019-12-12 00:39 UTC (5 hours ago):

TAF KPIE 112337Z 1200/1224 04012G20KT P6SM SCT020 BKN035 FM120200 04015G25KT P6SM OVC020 FM121100 04012KT P6SM BKN015 BKN040 FM121500 07010KT P6SM BKN020 OVC050